sensor_id;sensor_type;location;lat;lon;timestamp;P1;P2;P0
60058;PMS7003;45932;50.658;3.022;2022-08-19T00:01:25;18.67;18.67;14.00
60058;PMS7003;45932;50.658;3.022;2022-08-19T00:03:54;18.33;18.00;12.00
60058;PMS7003;45932;50.658;3.022;2022-08-19T00:06:20;21.33;20.00;12.33
60058;PMS7003;45932;50.658;3.022;2022-08-19T00:08:45;15.00;15.00;9.33
60058;PMS7003;45932;50.658;3.022;2022-08-19T00:11:11;17.33;14.67;11.67
60058;PMS7003;45932;50.658;3.022;2022-08-19T00:13:37;16.67;15.67;11.67
60058;PMS7003;45932;50.658;3.022;2022-08-19T00:16:03;19.00;16.67;11.67
60058;PMS7003;45932;50.658;3.022;2022-08-19T00:18:30;15.67;15.67;10.67
60058;PMS7003;45932;50.658;3.022;2022-08-19T00:20:57;21.33;18.00;12.33
60058;PMS7003;45932;50.658;3.022;2022-08-19T00:23:23;14.33;14.33;10.33
60058;PMS7003;45932;50.658;3.022;2022-08-19T00:25:49;17.33;11.33;7.00
60058;PMS7003;45932;50.658;3.022;2022-08-19T00:28:14;14.33;14.33;9.33
60058;PMS7003;45932;50.658;3.022;2022-08-19T00:30:39;14.33;14.33;10.00
60058;PMS7003;45932;50.658;3.022;2022-08-19T00:33:06;17.00;15.67;11.00
60058;PMS7003;45932;50.658;3.022;2022-08-19T00:35:32;17.67;15.67;10.33
60058;PMS7003;45932;50.658;3.022;2022-08-19T00:37:58;14.33;13.33;9.00
60058;PMS7003;45932;50.658;3.022;2022-08-19T00:40:24;15.00;13.67;8.67
60058;PMS7003;45932;50.658;3.022;2022-08-19T00:42:50;13.67;13.00;9.67
60058;PMS7003;45932;50.658;3.022;2022-08-19T00:45:20;17.33;15.67;10.67
60058;PMS7003;45932;50.658;3.022;2022-08-19T00:47:47;13.33;12.00;8.00
60058;PMS7003;45932;50.658;3.022;2022-08-19T00:50:14;13.67;11.33;8.67
60058;PMS7003;45932;50.658;3.022;2022-08-19T00:52:44;10.33;9.67;7.67
60058;PMS7003;45932;50.658;3.022;2022-08-19T00:55:14;14.67;14.67;9.00
60058;PMS7003;45932;50.658;3.022;2022-08-19T00:57:48;13.67;11.33;7.67
60058;PMS7003;45932;50.658;3.022;2022-08-19T01:00:19;12.00;10.67;8.00
60058;PMS7003;45932;50.658;3.022;2022-08-19T01:02:46;12.67;12.67;8.67
60058;PMS7003;45932;50.658;3.022;2022-08-19T01:05:13;13.00;12.67;7.33
60058;PMS7003;45932;50.658;3.022;2022-08-19T01:07:43;9.67;9.67;6.67
60058;PMS7003;45932;50.658;3.022;2022-08-19T01:10:11;10.33;8.67;6.33
60058;PMS7003;45932;50.658;3.022;2022-08-19T01:12:39;11.00;10.00;6.67
60058;PMS7003;45932;50.658;3.022;2022-08-19T01:15:05;8.33;8.33;6.33
60058;PMS7003;45932;50.658;3.022;2022-08-19T01:17:33;10.33;9.33;7.67
60058;PMS7003;45932;50.658;3.022;2022-08-19T01:20:01;12.67;9.67;6.00
60058;PMS7003;45932;50.658;3.022;2022-08-19T01:25:05;8.00;7.67;5.33
60058;PMS7003;45932;50.658;3.022;2022-08-19T01:27:41;9.33;8.33;5.67
60058;PMS7003;45932;50.658;3.022;2022-08-19T01:30:11;8.00;7.00;4.00
60058;PMS7003;45932;50.658;3.022;2022-08-19T01:32:39;6.67;6.33;5.00
60058;PMS7003;45932;50.658;3.022;2022-08-19T01:35:05;7.33;7.33;5.33
60058;PMS7003;45932;50.658;3.022;2022-08-19T01:37:41;8.67;7.33;5.33
60058;PMS7003;45932;50.658;3.022;2022-08-19T01:40:14;11.00;8.33;6.00
60058;PMS7003;45932;50.658;3.022;2022-08-19T01:42:40;9.67;8.00;5.00
60058;PMS7003;45932;50.658;3.022;2022-08-19T01:45:06;11.33;10.00;6.00
60058;PMS7003;45932;50.658;3.022;2022-08-19T01:47:33;9.33;7.67;5.33
60058;PMS7003;45932;50.658;3.022;2022-08-19T01:50:00;7.33;7.33;4.00
60058;PMS7003;45932;50.658;3.022;2022-08-19T01:52:25;8.67;6.33;6.00
60058;PMS7003;45932;50.658;3.022;2022-08-19T01:54:52;8.67;8.67;5.67
60058;PMS7003;45932;50.658;3.022;2022-08-19T01:57:17;10.67;8.00;6.33
60058;PMS7003;45932;50.658;3.022;2022-08-19T01:59:43;9.00;8.33;7.67
60058;PMS7003;45932;50.658;3.022;2022-08-19T02:02:10;5.67;5.67;3.67
60058;PMS7003;45932;50.658;3.022;2022-08-19T02:04:36;8.67;7.67;5.67
60058;PMS7003;45932;50.658;3.022;2022-08-19T02:07:03;7.00;7.00;6.00
60058;PMS7003;45932;50.658;3.022;2022-08-19T02:09:30;6.00;5.00;2.00
60058;PMS7003;45932;50.658;3.022;2022-08-19T02:11:56;11.33;9.00;6.00
60058;PMS7003;45932;50.658;3.022;2022-08-19T02:14:22;8.67;8.00;5.33
60058;PMS7003;45932;50.658;3.022;2022-08-19T02:16:47;11.00;9.67;5.33
60058;PMS7003;45932;50.658;3.022;2022-08-19T02:19:12;7.67;7.67;5.67
60058;PMS7003;45932;50.658;3.022;2022-08-19T02:21:38;9.33;9.00;6.00
60058;PMS7003;45932;50.658;3.022;2022-08-19T02:24:03;6.33;4.67;2.33
60058;PMS7003;45932;50.658;3.022;2022-08-19T02:26:29;5.00;5.00;4.00
60058;PMS7003;45932;50.658;3.022;2022-08-19T02:28:55;9.33;8.67;5.33
60058;PMS7003;45932;50.658;3.022;2022-08-19T02:31:21;8.33;7.33;5.00
60058;PMS7003;45932;50.658;3.022;2022-08-19T02:33:48;9.33;9.00;5.00
60058;PMS7003;45932;50.658;3.022;2022-08-19T02:36:14;3.00;3.00;3.00
60058;PMS7003;45932;50.658;3.022;2022-08-19T02:38:41;8.00;6.33;4.00
60058;PMS7003;45932;50.658;3.022;2022-08-19T02:41:13;5.00;4.67;3.67
60058;PMS7003;45932;50.658;3.022;2022-08-19T02:43:41;7.33;6.00;4.67
60058;PMS7003;45932;50.658;3.022;2022-08-19T02:46:11;6.00;5.33;4.00
60058;PMS7003;45932;50.658;3.022;2022-08-19T02:48:38;6.00;6.00;4.67
60058;PMS7003;45932;50.658;3.022;2022-08-19T02:51:03;2.33;2.33;1.33
60058;PMS7003;45932;50.658;3.022;2022-08-19T02:53:30;6.33;6.33;4.67
60058;PMS7003;45932;50.658;3.022;2022-08-19T02:55:56;5.00;5.00;4.00
60058;PMS7003;45932;50.658;3.022;2022-08-19T02:58:22;4.00;4.00;3.33
60058;PMS7003;45932;50.658;3.022;2022-08-19T03:00:49;6.33;6.33;4.00
60058;PMS7003;45932;50.658;3.022;2022-08-19T03:03:17;8.00;5.67;4.00
60058;PMS7003;45932;50.658;3.022;2022-08-19T03:05:44;6.67;5.00;3.00
60058;PMS7003;45932;50.658;3.022;2022-08-19T03:08:09;8.33;5.33;4.00
60058;PMS7003;45932;50.658;3.022;2022-08-19T03:10:46;5.67;4.33;3.67
60058;PMS7003;45932;50.658;3.022;2022-08-19T03:13:13;5.67;5.67;4.67
60058;PMS7003;45932;50.658;3.022;2022-08-19T03:15:43;6.67;6.67;4.00
60058;PMS7003;45932;50.658;3.022;2022-08-19T03:18:11;5.67;5.00;5.00
60058;PMS7003;45932;50.658;3.022;2022-08-19T03:20:44;6.33;6.33;4.00
60058;PMS7003;45932;50.658;3.022;2022-08-19T03:23:12;7.00;5.00;4.00
60058;PMS7003;45932;50.658;3.022;2022-08-19T03:25:40;6.33;6.33;4.00
60058;PMS7003;45932;50.658;3.022;2022-08-19T03:28:12;8.00;6.67;4.33
60058;PMS7003;45932;50.658;3.022;2022-08-19T03:30:39;9.00;6.00;4.33
60058;PMS7003;45932;50.658;3.022;2022-08-19T03:33:09;7.00;7.00;4.67
60058;PMS7003;45932;50.658;3.022;2022-08-19T03:35:36;5.67;5.33;4.00
60058;PMS7003;45932;50.658;3.022;2022-08-19T03:38:05;6.33;6.00;4.33
60058;PMS7003;45932;50.658;3.022;2022-08-19T03:40:31;7.00;5.00;4.00
60058;PMS7003;45932;50.658;3.022;2022-08-19T03:42:57;8.33;7.33;4.00
60058;PMS7003;45932;50.658;3.022;2022-08-19T03:45:23;5.67;5.67;4.33
60058;PMS7003;45932;50.658;3.022;2022-08-19T03:47:49;7.67;7.67;5.33
60058;PMS7003;45932;50.658;3.022;2022-08-19T03:50:14;10.33;10.33;7.00
60058;PMS7003;45932;50.658;3.022;2022-08-19T03:52:40;10.00;7.67;5.00
60058;PMS7003;45932;50.658;3.022;2022-08-19T03:55:06;8.00;7.00;5.33
60058;PMS7003;45932;50.658;3.022;2022-08-19T03:57:32;9.67;9.33;5.00
60058;PMS7003;45932;50.658;3.022;2022-08-19T03:59:59;8.67;7.33;6.00
60058;PMS7003;45932;50.658;3.022;2022-08-19T04:02:25;10.33;9.33;5.00
60058;PMS7003;45932;50.658;3.022;2022-08-19T04:04:52;7.33;6.67;4.67
60058;PMS7003;45932;50.658;3.022;2022-08-19T04:07:20;8.67;8.67;6.00
60058;PMS7003;45932;50.658;3.022;2022-08-19T04:09:47;6.67;5.33;4.00
60058;PMS7003;45932;50.658;3.022;2022-08-19T04:12:14;9.67;8.00;5.00
60058;PMS7003;45932;50.658;3.022;2022-08-19T04:14:40;7.33;6.00;3.67
60058;PMS7003;45932;50.658;3.022;2022-08-19T04:17:06;8.33;8.33;5.33
60058;PMS7003;45932;50.658;3.022;2022-08-19T04:19:33;7.67;7.67;5.67
60058;PMS7003;45932;50.658;3.022;2022-08-19T04:21:59;7.67;7.67;5.33
60058;PMS7003;45932;50.658;3.022;2022-08-19T04:24:25;7.00;6.67;4.33
60058;PMS7003;45932;50.658;3.022;2022-08-19T04:26:50;6.00;6.00;4.00
60058;PMS7003;45932;50.658;3.022;2022-08-19T04:29:18;15.00;11.33;7.33
60058;PMS7003;45932;50.658;3.022;2022-08-19T04:31:46;7.33;6.00;4.33
60058;PMS7003;45932;50.658;3.022;2022-08-19T04:34:13;8.00;6.33;4.00
60058;PMS7003;45932;50.658;3.022;2022-08-19T04:36:42;12.33;6.67;4.33
60058;PMS7003;45932;50.658;3.022;2022-08-19T04:39:16;7.67;6.67;5.00
60058;PMS7003;45932;50.658;3.022;2022-08-19T04:41:44;8.33;6.67;5.00
60058;PMS7003;45932;50.658;3.022;2022-08-19T04:44:29;5.00;5.00;4.00
60058;PMS7003;45932;50.658;3.022;2022-08-19T04:46:55;6.33;5.00;4.00
60058;PMS7003;45932;50.658;3.022;2022-08-19T04:49:22;6.33;6.33;4.00
60058;PMS7003;45932;50.658;3.022;2022-08-19T04:51:48;5.67;5.33;4.33
60058;PMS7003;45932;50.658;3.022;2022-08-19T04:54:15;6.00;6.00;4.33
60058;PMS7003;45932;50.658;3.022;2022-08-19T04:56:41;7.67;5.67;4.33
60058;PMS7003;45932;50.658;3.022;2022-08-19T04:59:07;8.00;7.00;4.00
60058;PMS7003;45932;50.658;3.022;2022-08-19T05:01:33;6.00;6.00;5.00
60058;PMS7003;45932;50.658;3.022;2022-08-19T05:04:01;5.00;5.00;4.00
60058;PMS7003;45932;50.658;3.022;2022-08-19T05:06:30;6.33;6.33;4.67
60058;PMS7003;45932;50.658;3.022;2022-08-19T05:09:03;7.00;7.00;5.00
60058;PMS7003;45932;50.658;3.022;2022-08-19T05:11:31;6.67;6.67;4.00
60058;PMS7003;45932;50.658;3.022;2022-08-19T05:13:59;4.33;4.33;4.00
60058;PMS7003;45932;50.658;3.022;2022-08-19T05:16:26;4.67;4.67;3.67
60058;PMS7003;45932;50.658;3.022;2022-08-19T05:18:53;6.00;5.67;3.00
60058;PMS7003;45932;50.658;3.022;2022-08-19T05:21:37;5.33;5.33;4.33
60058;PMS7003;45932;50.658;3.022;2022-08-19T05:24:22;7.00;5.67;4.33
60058;PMS7003;45932;50.658;3.022;2022-08-19T05:26:50;6.00;6.00;4.33
60058;PMS7003;45932;50.658;3.022;2022-08-19T05:29:17;5.00;5.00;3.00
60058;PMS7003;45932;50.658;3.022;2022-08-19T05:31:46;9.67;6.00;4.00
60058;PMS7003;45932;50.658;3.022;2022-08-19T05:34:14;8.33;7.67;4.67
60058;PMS7003;45932;50.658;3.022;2022-08-19T05:36:41;7.33;7.33;5.00
60058;PMS7003;45932;50.658;3.022;2022-08-19T05:39:09;8.67;8.00;5.67
60058;PMS7003;45932;50.658;3.022;2022-08-19T05:41:47;6.00;6.00;4.33
60058;PMS7003;45932;50.658;3.022;2022-08-19T05:44:14;8.67;7.33;5.00
60058;PMS7003;45932;50.658;3.022;2022-08-19T05:46:42;10.67;9.00;6.33
60058;PMS7003;45932;50.658;3.022;2022-08-19T05:49:12;8.00;8.00;5.00
60058;PMS7003;45932;50.658;3.022;2022-08-19T05:51:39;6.67;6.67;4.33
60058;PMS7003;45932;50.658;3.022;2022-08-19T05:54:05;5.67;5.33;4.33
60058;PMS7003;45932;50.658;3.022;2022-08-19T05:56:32;6.00;5.67;4.67
60058;PMS7003;45932;50.658;3.022;2022-08-19T05:58:59;6.67;6.67;4.00
60058;PMS7003;45932;50.658;3.022;2022-08-19T06:01:26;6.00;6.00;5.00
60058;PMS7003;45932;50.658;3.022;2022-08-19T06:03:52;7.67;5.00;4.00
60058;PMS7003;45932;50.658;3.022;2022-08-19T06:06:17;6.67;5.67;4.00
60058;PMS7003;45932;50.658;3.022;2022-08-19T06:08:43;7.33;7.33;4.00
60058;PMS7003;45932;50.658;3.022;2022-08-19T06:11:35;6.67;5.33;4.33
60058;PMS7003;45932;50.658;3.022;2022-08-19T06:14:04;7.33;5.67;4.33
60058;PMS7003;45932;50.658;3.022;2022-08-19T06:16:34;8.00;7.67;4.67
60058;PMS7003;45932;50.658;3.022;2022-08-19T06:19:01;7.00;6.67;5.00
60058;PMS7003;45932;50.658;3.022;2022-08-19T06:21:29;5.67;5.67;4.33
60058;PMS7003;45932;50.658;3.022;2022-08-19T06:23:56;7.33;7.33;5.00
60058;PMS7003;45932;50.658;3.022;2022-08-19T06:26:22;6.33;5.00;4.00
60058;PMS7003;45932;50.658;3.022;2022-08-19T06:28:49;5.00;5.00;3.33
60058;PMS7003;45932;50.658;3.022;2022-08-19T06:31:16;6.00;5.00;4.00
60058;PMS7003;45932;50.658;3.022;2022-08-19T06:33:44;8.00;7.33;4.67
60058;PMS7003;45932;50.658;3.022;2022-08-19T06:36:18;7.00;6.00;4.00
60058;PMS7003;45932;50.658;3.022;2022-08-19T06:38:52;6.33;6.33;4.00
60058;PMS7003;45932;50.658;3.022;2022-08-19T06:41:17;5.00;5.00;4.00
60058;PMS7003;45932;50.658;3.022;2022-08-19T06:43:43;4.00;4.00;3.00
60058;PMS7003;45932;50.658;3.022;2022-08-19T06:46:09;6.33;5.33;3.00
60058;PMS7003;45932;50.658;3.022;2022-08-19T06:48:36;6.00;4.67;3.00
60058;PMS7003;45932;50.658;3.022;2022-08-19T06:51:02;4.33;3.00;2.67
60058;PMS7003;45932;50.658;3.022;2022-08-19T06:53:28;5.00;4.00;3.00
60058;PMS7003;45932;50.658;3.022;2022-08-19T06:55:54;4.00;4.00;3.00
60058;PMS7003;45932;50.658;3.022;2022-08-19T06:58:24;7.33;5.00;4.00
60058;PMS7003;45932;50.658;3.022;2022-08-19T07:00:50;6.00;2.00;2.00
60058;PMS7003;45932;50.658;3.022;2022-08-19T07:03:16;4.00;4.00;3.00
60058;PMS7003;45932;50.658;3.022;2022-08-19T07:05:42;3.67;3.67;2.00
60058;PMS7003;45932;50.658;3.022;2022-08-19T07:08:08;1.67;1.33;0.00
60058;PMS7003;45932;50.658;3.022;2022-08-19T07:10:34;2.00;2.00;1.67
60058;PMS7003;45932;50.658;3.022;2022-08-19T07:13:01;2.00;2.00;1.67
60058;PMS7003;45932;50.658;3.022;2022-08-19T07:15:27;3.00;3.00;2.00
60058;PMS7003;45932;50.658;3.022;2022-08-19T07:17:53;3.00;3.00;3.00
60058;PMS7003;45932;50.658;3.022;2022-08-19T07:20:18;3.00;3.00;2.00
60058;PMS7003;45932;50.658;3.022;2022-08-19T07:22:43;4.33;3.33;2.33
60058;PMS7003;45932;50.658;3.022;2022-08-19T07:25:10;2.00;2.00;1.33
60058;PMS7003;45932;50.658;3.022;2022-08-19T07:27:38;1.33;1.33;1.00
60058;PMS7003;45932;50.658;3.022;2022-08-19T07:30:04;2.33;2.33;1.00
60058;PMS7003;45932;50.658;3.022;2022-08-19T07:32:30;1.00;1.00;1.00
60058;PMS7003;45932;50.658;3.022;2022-08-19T07:34:55;1.00;1.00;1.00
60058;PMS7003;45932;50.658;3.022;2022-08-19T07:37:21;2.00;2.00;1.33
60058;PMS7003;45932;50.658;3.022;2022-08-19T07:39:46;1.00;1.00;0.33
60058;PMS7003;45932;50.658;3.022;2022-08-19T07:42:12;3.00;3.00;2.00
60058;PMS7003;45932;50.658;3.022;2022-08-19T07:44:39;4.00;4.00;2.33
60058;PMS7003;45932;50.658;3.022;2022-08-19T07:47:05;2.67;2.67;2.00
60058;PMS7003;45932;50.658;3.022;2022-08-19T07:49:31;2.00;1.33;1.00
60058;PMS7003;45932;50.658;3.022;2022-08-19T07:52:04;3.00;2.67;2.00
60058;PMS7003;45932;50.658;3.022;2022-08-19T07:54:32;1.67;0.67;0.00
60058;PMS7003;45932;50.658;3.022;2022-08-19T07:56:59;1.33;1.33;1.00
60058;PMS7003;45932;50.658;3.022;2022-08-19T07:59:25;1.67;1.67;1.00
60058;PMS7003;45932;50.658;3.022;2022-08-19T08:01:51;1.00;1.00;1.00
60058;PMS7003;45932;50.658;3.022;2022-08-19T08:04:17;0.33;0.00;0.00
60058;PMS7003;45932;50.658;3.022;2022-08-19T08:07:05;2.00;2.00;0.00
60058;PMS7003;45932;50.658;3.022;2022-08-19T08:09:51;1.00;1.00;0.33
60058;PMS7003;45932;50.658;3.022;2022-08-19T08:12:21;2.33;2.00;1.00
60058;PMS7003;45932;50.658;3.022;2022-08-19T08:14:53;1.00;1.00;1.00
60058;PMS7003;45932;50.658;3.022;2022-08-19T08:17:22;0.00;0.00;0.00
60058;PMS7003;45932;50.658;3.022;2022-08-19T08:19:49;1.00;1.00;1.00
60058;PMS7003;45932;50.658;3.022;2022-08-19T08:22:16;1.00;1.00;0.67
60058;PMS7003;45932;50.658;3.022;2022-08-19T08:25:21;1.67;1.67;1.67
60058;PMS7003;45932;50.658;3.022;2022-08-19T08:27:48;3.00;3.00;2.00
60058;PMS7003;45932;50.658;3.022;2022-08-19T08:30:19;3.00;3.00;2.67
60058;PMS7003;45932;50.658;3.022;2022-08-19T08:32:47;2.33;2.33;1.33
60058;PMS7003;45932;50.658;3.022;2022-08-19T08:35:14;1.33;1.33;1.00
60058;PMS7003;45932;50.658;3.022;2022-08-19T08:37:41;0.00;0.00;0.00
60058;PMS7003;45932;50.658;3.022;2022-08-19T08:43:09;0.00;0.00;0.00
60058;PMS7003;45932;50.658;3.022;2022-08-19T08:45:42;0.00;0.00;0.00
60058;PMS7003;45932;50.658;3.022;2022-08-19T08:48:22;0.00;0.00;0.00
60058;PMS7003;45932;50.658;3.022;2022-08-19T08:50:56;0.00;0.00;0.00
60058;PMS7003;45932;50.658;3.022;2022-08-19T08:53:28;0.00;0.00;0.00
60058;PMS7003;45932;50.658;3.022;2022-08-19T08:55:56;0.00;0.00;0.00
60058;PMS7003;45932;50.658;3.022;2022-08-19T08:58:29;0.00;0.00;0.00
60058;PMS7003;45932;50.658;3.022;2022-08-19T09:01:09;0.00;0.00;0.00
60058;PMS7003;45932;50.658;3.022;2022-08-19T09:03:36;0.00;0.00;0.00
60058;PMS7003;45932;50.658;3.022;2022-08-19T09:08:50;0.00;0.00;0.00
60058;PMS7003;45932;50.658;3.022;2022-08-19T09:16:49;0.00;0.00;0.00
60058;PMS7003;45932;50.658;3.022;2022-08-19T09:19:16;0.00;0.00;0.00
60058;PMS7003;45932;50.658;3.022;2022-08-19T09:21:42;0.67;0.67;0.00
60058;PMS7003;45932;50.658;3.022;2022-08-19T09:24:08;0.00;0.00;0.00
60058;PMS7003;45932;50.658;3.022;2022-08-19T09:26:33;0.00;0.00;0.00
60058;PMS7003;45932;50.658;3.022;2022-08-19T09:28:59;0.00;0.00;0.00
60058;PMS7003;45932;50.658;3.022;2022-08-19T09:31:27;0.00;0.00;0.00
60058;PMS7003;45932;50.658;3.022;2022-08-19T09:33:57;0.00;0.00;0.00
60058;PMS7003;45932;50.658;3.022;2022-08-19T09:36:24;0.00;0.00;0.00
60058;PMS7003;45932;50.658;3.022;2022-08-19T09:38:53;0.00;0.00;0.00
60058;PMS7003;45932;50.658;3.022;2022-08-19T09:41:20;0.00;0.00;0.00
60058;PMS7003;45932;50.658;3.022;2022-08-19T09:43:49;0.00;0.00;0.00
60058;PMS7003;45932;50.658;3.022;2022-08-19T09:46:21;0.00;0.00;0.00
60058;PMS7003;45932;50.658;3.022;2022-08-19T09:48:49;0.00;0.00;0.00
60058;PMS7003;45932;50.658;3.022;2022-08-19T09:51:21;0.00;0.00;0.00
60058;PMS7003;45932;50.658;3.022;2022-08-19T09:53:49;0.00;0.00;0.00
60058;PMS7003;45932;50.658;3.022;2022-08-19T09:56:17;0.00;0.00;0.00
60058;PMS7003;45932;50.658;3.022;2022-08-19T09:58:43;0.50;0.50;0.25
60058;PMS7003;45932;50.658;3.022;2022-08-19T10:01:14;1.67;0.33;0.33
60058;PMS7003;45932;50.658;3.022;2022-08-19T10:03:41;2.00;1.00;0.00
60058;PMS7003;45932;50.658;3.022;2022-08-19T10:06:07;0.00;0.00;0.00
60058;PMS7003;45932;50.658;3.022;2022-08-19T10:08:34;3.00;1.00;1.00
60058;PMS7003;45932;50.658;3.022;2022-08-19T10:11:01;1.67;1.67;1.00
60058;PMS7003;45932;50.658;3.022;2022-08-19T10:13:29;1.00;1.00;1.00
60058;PMS7003;45932;50.658;3.022;2022-08-19T10:15:56;0.00;0.00;0.00
60058;PMS7003;45932;50.658;3.022;2022-08-19T10:18:28;1.00;1.00;0.00
60058;PMS7003;45932;50.658;3.022;2022-08-19T10:21:01;0.00;0.00;0.00
60058;PMS7003;45932;50.658;3.022;2022-08-19T10:23:35;0.33;0.33;0.00
60058;PMS7003;45932;50.658;3.022;2022-08-19T10:26:02;1.67;1.00;1.00
60058;PMS7003;45932;50.658;3.022;2022-08-19T10:28:30;0.00;0.00;0.00
60058;PMS7003;45932;50.658;3.022;2022-08-19T10:30:55;0.00;0.00;0.00
60058;PMS7003;45932;50.658;3.022;2022-08-19T10:33:20;0.67;0.67;0.00
60058;PMS7003;45932;50.658;3.022;2022-08-19T10:35:46;1.33;1.33;1.00
60058;PMS7003;45932;50.658;3.022;2022-08-19T10:38:11;0.33;0.33;0.00
60058;PMS7003;45932;50.658;3.022;2022-08-19T10:40:37;1.00;1.00;0.00
60058;PMS7003;45932;50.658;3.022;2022-08-19T10:43:02;1.00;1.00;0.00
60058;PMS7003;45932;50.658;3.022;2022-08-19T10:45:28;0.00;0.00;0.00
60058;PMS7003;45932;50.658;3.022;2022-08-19T10:47:53;0.33;0.33;0.33
60058;PMS7003;45932;50.658;3.022;2022-08-19T10:50:19;0.00;0.00;0.00
60058;PMS7003;45932;50.658;3.022;2022-08-19T10:53:04;1.67;0.33;0.00
60058;PMS7003;45932;50.658;3.022;2022-08-19T10:55:33;0.00;0.00;0.00
60058;PMS7003;45932;50.658;3.022;2022-08-19T10:58:17;0.00;0.00;0.00
60058;PMS7003;45932;50.658;3.022;2022-08-19T11:00:54;0.00;0.00;0.00
60058;PMS7003;45932;50.658;3.022;2022-08-19T11:03:22;0.00;0.00;0.00
60058;PMS7003;45932;50.658;3.022;2022-08-19T11:06:01;0.00;0.00;0.00
60058;PMS7003;45932;50.658;3.022;2022-08-19T11:08:29;1.67;0.00;0.00
60058;PMS7003;45932;50.658;3.022;2022-08-19T11:10:59;0.67;0.67;0.67
60058;PMS7003;45932;50.658;3.022;2022-08-19T11:13:29;1.00;1.00;0.00
60058;PMS7003;45932;50.658;3.022;2022-08-19T11:16:03;0.33;0.33;0.00
60058;PMS7003;45932;50.658;3.022;2022-08-19T11:18:33;1.00;1.00;0.00
60058;PMS7003;45932;50.658;3.022;2022-08-19T11:21:15;1.00;0.00;0.00
60058;PMS7003;45932;50.658;3.022;2022-08-19T11:23:44;1.00;1.00;0.00
60058;PMS7003;45932;50.658;3.022;2022-08-19T11:26:14;0.00;0.00;0.00
60058;PMS7003;45932;50.658;3.022;2022-08-19T11:28:41;2.33;2.33;1.00
60058;PMS7003;45932;50.658;3.022;2022-08-19T11:31:14;1.00;1.00;0.67
60058;PMS7003;45932;50.658;3.022;2022-08-19T11:33:44;1.67;1.67;1.00
60058;PMS7003;45932;50.658;3.022;2022-08-19T11:36:11;0.00;0.00;0.00
60058;PMS7003;45932;50.658;3.022;2022-08-19T11:38:37;0.00;0.00;0.00
60058;PMS7003;45932;50.658;3.022;2022-08-19T11:41:05;0.00;0.00;0.00
60058;PMS7003;45932;50.658;3.022;2022-08-19T11:43:35;1.00;1.00;0.00
60058;PMS7003;45932;50.658;3.022;2022-08-19T11:46:05;1.33;1.00;0.33
60058;PMS7003;45932;50.658;3.022;2022-08-19T11:48:32;2.00;2.00;1.00
60058;PMS7003;45932;50.658;3.022;2022-08-19T11:50:58;0.00;0.00;0.00
60058;PMS7003;45932;50.658;3.022;2022-08-19T11:53:23;0.00;0.00;0.00
60058;PMS7003;45932;50.658;3.022;2022-08-19T11:55:49;0.00;0.00;0.00
60058;PMS7003;45932;50.658;3.022;2022-08-19T11:58:18;1.00;0.00;0.00
60058;PMS7003;45932;50.658;3.022;2022-08-19T12:00:44;1.00;1.00;0.00
60058;PMS7003;45932;50.658;3.022;2022-08-19T12:03:10;1.00;1.00;0.00
60058;PMS7003;45932;50.658;3.022;2022-08-19T12:05:38;1.00;1.00;1.00
60058;PMS7003;45932;50.658;3.022;2022-08-19T12:08:04;2.33;0.67;0.00
60058;PMS7003;45932;50.658;3.022;2022-08-19T12:13:53;2.00;1.00;1.00
60058;PMS7003;45932;50.658;3.022;2022-08-19T12:16:20;1.00;1.00;1.00
60058;PMS7003;45932;50.658;3.022;2022-08-19T12:18:48;0.00;0.00;0.00
60058;PMS7003;45932;50.658;3.022;2022-08-19T12:21:16;0.00;0.00;0.00
60058;PMS7003;45932;50.658;3.022;2022-08-19T12:23:48;0.33;0.33;0.00
60058;PMS7003;45932;50.658;3.022;2022-08-19T12:26:15;0.00;0.00;0.00
60058;PMS7003;45932;50.658;3.022;2022-08-19T12:28:41;1.00;0.67;0.00
60058;PMS7003;45932;50.658;3.022;2022-08-19T12:31:07;2.33;1.00;1.00
60058;PMS7003;45932;50.658;3.022;2022-08-19T12:33:36;0.00;0.00;0.00
60058;PMS7003;45932;50.658;3.022;2022-08-19T12:36:15;0.00;0.00;0.00
60058;PMS7003;45932;50.658;3.022;2022-08-19T12:38:42;1.67;1.67;1.00
60058;PMS7003;45932;50.658;3.022;2022-08-19T12:41:10;1.00;1.00;1.00
60058;PMS7003;45932;50.658;3.022;2022-08-19T12:43:37;0.00;0.00;0.00
60058;PMS7003;45932;50.658;3.022;2022-08-19T12:46:04;0.00;0.00;0.00
60058;PMS7003;45932;50.658;3.022;2022-08-19T12:48:30;0.00;0.00;0.00
60058;PMS7003;45932;50.658;3.022;2022-08-19T12:50:56;0.00;0.00;0.00
60058;PMS7003;45932;50.658;3.022;2022-08-19T12:53:22;0.00;0.00;0.00
60058;PMS7003;45932;50.658;3.022;2022-08-19T12:55:47;0.00;0.00;0.00
60058;PMS7003;45932;50.658;3.022;2022-08-19T12:58:20;0.33;0.33;0.00
60058;PMS7003;45932;50.658;3.022;2022-08-19T13:00:49;0.33;0.00;0.00
60058;PMS7003;45932;50.658;3.022;2022-08-19T13:03:23;0.00;0.00;0.00
60058;PMS7003;45932;50.658;3.022;2022-08-19T13:05:56;0.00;0.00;0.00
60058;PMS7003;45932;50.658;3.022;2022-08-19T13:08:21;0.33;0.33;0.33
60058;PMS7003;45932;50.658;3.022;2022-08-19T13:10:47;0.33;0.33;0.33
60058;PMS7003;45932;50.658;3.022;2022-08-19T13:13:12;0.33;0.33;0.33
60058;PMS7003;45932;50.658;3.022;2022-08-19T13:15:39;0.00;0.00;0.00
60058;PMS7003;45932;50.658;3.022;2022-08-19T13:18:06;0.00;0.00;0.00
60058;PMS7003;45932;50.658;3.022;2022-08-19T13:20:34;1.00;1.00;1.00
60058;PMS7003;45932;50.658;3.022;2022-08-19T13:23:00;0.00;0.00;0.00
60058;PMS7003;45932;50.658;3.022;2022-08-19T13:25:25;0.00;0.00;0.00
60058;PMS7003;45932;50.658;3.022;2022-08-19T13:27:51;0.00;0.00;0.00
60058;PMS7003;45932;50.658;3.022;2022-08-19T13:30:17;0.00;0.00;0.00
60058;PMS7003;45932;50.658;3.022;2022-08-19T13:33:02;0.00;0.00;0.00
60058;PMS7003;45932;50.658;3.022;2022-08-19T13:35:44;0.00;0.00;0.00
60058;PMS7003;45932;50.658;3.022;2022-08-19T13:38:15;1.33;0.00;0.00
60058;PMS7003;45932;50.658;3.022;2022-08-19T13:40:43;0.67;0.67;0.00
60058;PMS7003;45932;50.658;3.022;2022-08-19T13:43:09;0.00;0.00;0.00
60058;PMS7003;45932;50.658;3.022;2022-08-19T13:45:35;1.00;1.00;1.00
60058;PMS7003;45932;50.658;3.022;2022-08-19T13:48:01;0.00;0.00;0.00
60058;PMS7003;45932;50.658;3.022;2022-08-19T13:50:33;0.00;0.00;0.00
60058;PMS7003;45932;50.658;3.022;2022-08-19T13:53:08;0.00;0.00;0.00
60058;PMS7003;45932;50.658;3.022;2022-08-19T13:55:36;0.00;0.00;0.00
60058;PMS7003;45932;50.658;3.022;2022-08-19T13:58:03;1.33;1.00;1.00
60058;PMS7003;45932;50.658;3.022;2022-08-19T14:00:32;0.67;0.67;0.00
60058;PMS7003;45932;50.658;3.022;2022-08-19T14:02:59;0.00;0.00;0.00
60058;PMS7003;45932;50.658;3.022;2022-08-19T14:05:26;0.00;0.00;0.00
60058;PMS7003;45932;50.658;3.022;2022-08-19T14:07:52;1.00;0.00;0.00
60058;PMS7003;45932;50.658;3.022;2022-08-19T14:10:18;0.00;0.00;0.00
60058;PMS7003;45932;50.658;3.022;2022-08-19T14:12:44;0.33;0.33;0.00
60058;PMS7003;45932;50.658;3.022;2022-08-19T14:15:10;0.00;0.00;0.00
60058;PMS7003;45932;50.658;3.022;2022-08-19T14:17:41;0.00;0.00;0.00
60058;PMS7003;45932;50.658;3.022;2022-08-19T14:20:08;0.00;0.00;0.00
60058;PMS7003;45932;50.658;3.022;2022-08-19T14:22:36;0.00;0.00;0.00
60058;PMS7003;45932;50.658;3.022;2022-08-19T14:25:11;0.67;0.67;0.00
60058;PMS7003;45932;50.658;3.022;2022-08-19T14:27:39;1.00;0.00;0.00
60058;PMS7003;45932;50.658;3.022;2022-08-19T14:30:06;0.33;0.33;0.00
60058;PMS7003;45932;50.658;3.022;2022-08-19T14:32:34;1.00;1.00;0.00
60058;PMS7003;45932;50.658;3.022;2022-08-19T14:35:00;0.67;0.00;0.00
60058;PMS7003;45932;50.658;3.022;2022-08-19T14:37:26;1.00;1.00;0.67
60058;PMS7003;45932;50.658;3.022;2022-08-19T14:39:51;0.00;0.00;0.00
60058;PMS7003;45932;50.658;3.022;2022-08-19T14:42:18;1.00;1.00;0.67